Atkinsons Mills, Pennsylvania
Current Conditions -  °F | °C
As of 6:53 PM on Friday 28 Nov 2014 (Local Time) from KUNV Reporting Station
Clear Clear  
Wind Chill: 15°   Ceiling: Unl
Heat Index: 23°   Visibility: 10mi
Dew Point: 12°   Wind: 7mph
Humidity: 63%   Direction: 280°W
Pressure: 30.23"   Gusts: NA
Location:  40.5138°N, 77.7384°W
Report Text: KUNV 282353Z 28006KT 10SM SKC M05/M11 A3023
Loading
Personal Weather Stations






























Interactive Weather Map New forecast layout! Learn more

10-Day Weather Forecast

Advertisements
Track Severe Weather on mobile